createdAt,value
2023-04-08T00:01:50.752Z,17.92
2023-04-08T00:04:20.538Z,16.65
2023-04-08T00:06:50.013Z,17.67
2023-04-08T00:09:19.057Z,13.75
2023-04-08T00:11:50.155Z,16.33
2023-04-08T00:14:19.476Z,16.35
2023-04-08T00:16:48.834Z,15.35
2023-04-08T00:19:18.271Z,15.48
2023-04-08T00:21:47.693Z,15.18
2023-04-08T00:24:17.356Z,18.65
2023-04-08T00:26:48.115Z,18.45
2023-04-08T00:29:17.353Z,20.23
2023-04-08T00:31:46.846Z,19.38
2023-04-08T00:34:16.018Z,22.33
2023-04-08T00:36:46.157Z,21.15
2023-04-08T00:39:15.909Z,19.58
2023-04-08T00:41:45.823Z,19.38
2023-04-08T00:44:16.599Z,17.33
2023-04-08T00:46:46.440Z,19.25
2023-04-08T00:49:16.188Z,17.75
2023-04-08T00:54:14.687Z,17.27
2023-04-08T00:56:46.232Z,18.15
2023-04-08T00:59:18.953Z,18.80
2023-04-08T01:01:58.764Z,18.58
2023-04-08T01:07:07.250Z,16.10
2023-04-08T01:09:40.199Z,18.50
2023-04-08T01:12:13.212Z,18.95
2023-04-08T01:14:48.255Z,17.33
2023-04-08T01:17:21.179Z,20.80
2023-04-08T01:19:51.968Z,22.45
2023-04-08T01:22:29.839Z,20.80
2023-04-08T01:25:03.995Z,19.52
2023-04-08T01:27:36.573Z,19.70
2023-04-08T01:30:09.078Z,18.08
2023-04-08T01:32:39.545Z,19.65
2023-04-08T01:35:10.806Z,19.70
2023-04-08T01:37:41.577Z,17.70
2023-04-08T01:40:13.595Z,17.83
2023-04-08T01:42:45.999Z,19.30
2023-04-08T01:45:15.881Z,19.25
2023-04-08T01:47:48.442Z,18.52
2023-04-08T01:50:18.430Z,18.83
2023-04-08T01:52:53.863Z,19.17
2023-04-08T01:55:24.132Z,19.10
2023-04-08T01:57:57.154Z,17.80
2023-04-08T02:00:30.641Z,18.65
2023-04-08T02:03:01.917Z,17.33
2023-04-08T02:05:31.328Z,18.67
2023-04-08T02:08:00.825Z,17.23
2023-04-08T02:10:30.245Z,19.50
2023-04-08T02:13:02.306Z,19.70
2023-04-08T02:15:36.357Z,19.27
2023-04-08T02:18:12.576Z,16.55
2023-04-08T02:20:49.083Z,16.98
2023-04-08T02:23:22.809Z,16.30
2023-04-08T02:25:53.633Z,17.20
2023-04-08T02:28:27.683Z,19.38
2023-04-08T02:31:23.240Z,19.80
2023-04-08T02:33:53.991Z,19.08
2023-04-08T02:36:24.517Z,19.42
2023-04-08T02:38:53.938Z,20.00
2023-04-08T02:41:23.659Z,20.52
2023-04-08T02:43:55.630Z,20.45
2023-04-08T02:46:25.079Z,20.80
2023-04-08T02:51:23.849Z,18.10
2023-04-08T02:53:53.245Z,21.08
2023-04-08T02:56:22.866Z,18.17
2023-04-08T02:58:53.612Z,21.90
2023-04-08T03:01:22.806Z,22.23
2023-04-08T03:03:52.433Z,21.63
2023-04-08T03:06:21.683Z,19.23
2023-04-08T03:08:51.254Z,18.85
2023-04-08T03:11:21.572Z,19.75
2023-04-08T03:13:50.988Z,19.40
2023-04-08T03:16:21.565Z,20.42
2023-04-08T03:18:52.508Z,19.00
2023-04-08T03:21:21.991Z,19.05
2023-04-08T03:23:51.291Z,19.05
2023-04-08T03:26:21.171Z,18.88
2023-04-08T03:28:50.826Z,19.77
2023-04-08T03:33:51.856Z,19.10
2023-04-08T03:36:20.931Z,19.73
2023-04-08T03:38:50.594Z,17.38
2023-04-08T03:41:19.871Z,19.52
2023-04-08T03:43:49.348Z,19.67
2023-04-08T03:46:18.540Z,18.58
2023-04-08T03:48:49.548Z,17.23
2023-04-08T03:51:18.924Z,19.65
2023-04-08T03:53:49.389Z,19.17
2023-04-08T03:56:18.549Z,19.20
2023-04-08T03:58:48.006Z,17.63
2023-04-08T04:01:18.061Z,18.08
2023-04-08T04:03:49.056Z,19.40
2023-04-08T04:06:18.343Z,19.73
2023-04-08T04:08:48.078Z,16.75
2023-04-08T04:11:17.847Z,20.17
2023-04-08T04:16:16.108Z,17.88
2023-04-08T04:18:45.591Z,18.65
2023-04-08T04:21:16.123Z,19.67
2023-04-08T04:23:45.681Z,21.08
2023-04-08T04:26:15.286Z,22.90
2023-04-08T04:28:44.766Z,23.58
2023-04-08T04:31:21.450Z,22.02
2023-04-08T04:33:51.686Z,24.35
2023-04-08T04:36:22.122Z,27.95
2023-04-08T04:38:52.453Z,24.08
2023-04-08T04:41:22.192Z,26.55
2023-04-08T04:46:20.995Z,18.17
2023-04-08T04:48:51.714Z,20.30
2023-04-08T04:51:22.325Z,21.30
2023-04-08T04:53:52.076Z,25.15
2023-04-08T04:56:21.309Z,21.63
2023-04-08T05:01:19.962Z,21.75
2023-04-08T05:03:49.535Z,21.27
2023-04-08T05:06:18.721Z,19.38
2023-04-08T05:08:49.693Z,20.42
2023-04-08T05:11:19.427Z,22.83
2023-04-08T05:13:48.942Z,24.70
2023-04-08T05:16:18.412Z,21.88
2023-04-08T05:18:48.054Z,19.75
2023-04-08T05:21:17.196Z,18.80
2023-04-08T05:23:48.157Z,15.13
2023-04-08T05:26:19.290Z,17.83
2023-04-08T05:28:49.963Z,19.33
2023-04-08T05:31:19.579Z,16.35
2023-04-08T05:33:49.182Z,16.48
2023-04-08T05:36:18.337Z,15.45
2023-04-08T05:38:49.295Z,15.68
2023-04-08T05:41:18.677Z,15.88
2023-04-08T05:43:48.027Z,16.02
2023-04-08T05:46:17.433Z,15.05
2023-04-08T05:51:17.884Z,14.93
2023-04-08T05:53:49.103Z,15.50
2023-04-08T05:56:18.419Z,16.08
2023-04-08T05:58:48.240Z,16.90
2023-04-08T06:01:17.613Z,17.50
2023-04-08T06:03:47.184Z,16.52
2023-04-08T06:06:16.711Z,15.88
2023-04-08T06:08:46.044Z,17.73
2023-04-08T06:11:16.678Z,16.95
2023-04-08T06:13:45.733Z,19.92
2023-04-08T06:16:19.615Z,21.02
2023-04-08T06:18:50.407Z,20.50
2023-04-08T06:21:20.014Z,19.67
2023-04-08T06:23:49.218Z,23.33
2023-04-08T06:26:20.074Z,20.90
2023-04-08T06:28:49.753Z,19.58
2023-04-08T06:31:19.305Z,21.55
2023-04-08T06:33:48.422Z,23.15
2023-04-08T06:36:17.899Z,23.80
2023-04-08T06:38:47.030Z,22.92
2023-04-08T06:41:16.517Z,25.25
2023-04-08T06:43:47.375Z,25.92
2023-04-08T06:46:16.860Z,27.65
2023-04-08T06:48:45.955Z,26.55
2023-04-08T06:51:15.889Z,26.05
2023-04-08T06:53:45.101Z,25.10
2023-04-08T06:56:14.435Z,26.77
2023-04-08T06:58:46.500Z,28.23
2023-04-08T07:01:16.749Z,25.30
2023-04-08T07:03:46.071Z,28.70
2023-04-08T07:06:15.610Z,27.25
2023-04-08T07:08:45.596Z,28.55
2023-04-08T07:11:15.150Z,27.95
2023-04-08T07:13:44.864Z,26.80
2023-04-08T07:16:16.092Z,25.52
2023-04-08T07:18:45.820Z,24.27
2023-04-08T07:21:15.382Z,27.27
2023-04-08T07:23:44.718Z,26.77
2023-04-08T07:26:14.316Z,25.65
2023-04-08T07:31:16.400Z,24.15
2023-04-08T07:33:46.530Z,25.70
2023-04-08T07:36:18.514Z,26.95
2023-04-08T07:38:47.858Z,25.30
2023-04-08T07:43:46.395Z,24.02
2023-04-08T07:46:17.263Z,21.70
2023-04-08T07:48:46.764Z,24.55
2023-04-08T07:53:45.361Z,21.17
2023-04-08T07:58:44.734Z,24.85
2023-04-08T08:01:21.266Z,23.83
2023-04-08T08:03:51.637Z,23.85
2023-04-08T08:06:22.172Z,20.55
2023-04-08T08:08:51.380Z,19.70
2023-04-08T08:11:21.380Z,22.33
2023-04-08T08:13:51.043Z,20.38
2023-04-08T08:16:22.011Z,20.65
2023-04-08T08:18:51.245Z,20.13
2023-04-08T08:21:20.627Z,17.75
2023-04-08T08:23:50.016Z,21.08
2023-04-08T08:26:19.696Z,17.45
2023-04-08T08:28:48.955Z,18.77
2023-04-08T08:31:18.321Z,21.30
2023-04-08T08:33:49.095Z,19.35
2023-04-08T08:36:19.168Z,19.98
2023-04-08T08:41:17.508Z,20.10
2023-04-08T08:43:48.976Z,19.92
2023-04-08T08:46:20.160Z,17.30
2023-04-08T08:48:50.965Z,19.23
2023-04-08T08:51:20.552Z,19.45
2023-04-08T08:53:49.626Z,19.27
2023-04-08T08:56:19.333Z,19.58
2023-04-08T09:01:38.708Z,18.60
2023-04-08T09:04:18.725Z,18.73
2023-04-08T09:06:50.196Z,17.48
2023-04-08T09:09:19.669Z,18.92
2023-04-08T09:11:49.749Z,19.02
2023-04-08T09:14:23.434Z,16.25
2023-04-08T09:16:53.604Z,17.95
2023-04-08T09:19:24.380Z,15.30
2023-04-08T09:22:10.856Z,15.20
2023-04-08T09:24:40.810Z,15.10
2023-04-08T09:27:10.598Z,15.65
2023-04-08T09:29:40.187Z,13.32
2023-04-08T09:32:09.706Z,14.82
2023-04-08T09:34:40.376Z,13.27
2023-04-08T09:37:10.271Z,14.35
2023-04-08T09:39:39.422Z,11.90
2023-04-08T09:44:41.611Z,12.15
2023-04-08T09:47:19.784Z,11.73
2023-04-08T09:50:05.610Z,8.73
2023-04-08T09:52:41.135Z,11.23
2023-04-08T09:55:14.027Z,10.43
2023-04-08T09:57:45.926Z,10.82
2023-04-08T10:00:17.021Z,12.13
2023-04-08T10:02:54.248Z,13.27
2023-04-08T10:05:26.767Z,10.90
2023-04-08T10:07:58.179Z,12.65
2023-04-08T10:10:29.584Z,11.55
2023-04-08T10:12:59.400Z,10.52
2023-04-08T10:18:14.765Z,11.68
2023-04-08T10:20:47.050Z,12.00
2023-04-08T10:23:17.577Z,10.32
2023-04-08T10:25:48.281Z,11.40
2023-04-08T10:28:27.398Z,12.63
2023-04-08T10:30:58.257Z,11.25
2023-04-08T10:33:37.870Z,10.18
2023-04-08T10:36:15.470Z,10.95
2023-04-08T10:38:47.274Z,10.45
2023-04-08T10:41:25.047Z,10.43
2023-04-08T10:43:54.953Z,10.88
2023-04-08T10:46:25.535Z,10.25
2023-04-08T10:49:02.715Z,10.13
2023-04-08T10:51:35.241Z,10.23
2023-04-08T10:54:08.554Z,10.57
2023-04-08T10:56:38.764Z,11.05
2023-04-08T10:59:08.274Z,10.38
2023-04-08T11:01:42.183Z,10.45
2023-04-08T11:04:16.519Z,12.15
2023-04-08T11:06:48.750Z,10.65
2023-04-08T11:09:18.502Z,9.45
2023-04-08T11:11:48.171Z,9.68
2023-04-08T11:14:21.901Z,9.00
2023-04-08T11:16:51.412Z,10.88
2023-04-08T11:19:21.539Z,9.20
2023-04-08T11:21:54.513Z,11.27
2023-04-08T11:24:24.232Z,11.65
2023-04-08T11:26:53.451Z,9.23
2023-04-08T11:31:52.316Z,10.57
2023-04-08T11:34:25.699Z,10.30
2023-04-08T11:36:58.492Z,11.77
2023-04-08T11:39:28.127Z,11.75
2023-04-08T11:41:57.513Z,11.48
2023-04-08T11:44:33.716Z,11.07
2023-04-08T11:47:03.193Z,10.82
2023-04-08T11:49:46.554Z,11.40
2023-04-08T11:52:17.142Z,12.27
2023-04-08T11:54:47.204Z,12.45
2023-04-08T11:57:17.689Z,12.45
2023-04-08T11:59:47.241Z,12.35
2023-04-08T12:02:17.238Z,11.00
2023-04-08T12:04:47.584Z,10.73
2023-04-08T12:07:18.526Z,12.55
2023-04-08T12:09:48.070Z,11.02
2023-04-08T12:12:17.160Z,11.18
2023-04-08T12:14:46.649Z,11.90
2023-04-08T12:17:15.963Z,10.80
2023-04-08T12:19:45.427Z,12.25
2023-04-08T12:22:14.474Z,11.05
2023-04-08T12:24:45.248Z,11.02
2023-04-08T12:27:14.553Z,9.48
2023-04-08T12:29:46.466Z,10.85
2023-04-08T12:32:15.683Z,9.63
2023-04-08T12:34:45.069Z,10.13
2023-04-08T12:42:14.038Z,9.27
2023-04-08T12:44:43.825Z,10.27
2023-04-08T12:47:13.230Z,8.40
2023-04-08T12:49:49.314Z,10.02
2023-04-08T12:52:19.780Z,9.00
2023-04-08T12:54:50.517Z,9.07
2023-04-08T12:57:19.932Z,8.02
2023-04-08T12:59:49.351Z,8.15
2023-04-08T13:04:49.836Z,8.73
2023-04-08T13:07:19.191Z,8.77
2023-04-08T13:09:49.990Z,8.05
2023-04-08T13:12:19.151Z,8.15
2023-04-08T13:14:48.639Z,8.23
2023-04-08T13:17:17.891Z,8.30
2023-04-08T13:19:47.598Z,8.43
2023-04-08T13:22:16.783Z,8.95
2023-04-08T13:24:46.730Z,7.90
2023-04-08T13:27:17.589Z,9.60
2023-04-08T13:29:47.175Z,7.35
2023-04-08T13:32:16.537Z,8.43
2023-04-08T13:34:45.919Z,6.70
2023-04-08T13:39:44.426Z,6.68
2023-04-08T13:47:13.130Z,6.15
2023-04-08T13:49:42.464Z,5.88
2023-04-08T13:57:11.348Z,10.00
2023-04-08T13:59:42.657Z,7.30
2023-04-08T14:02:14.780Z,5.82
2023-04-08T14:04:45.873Z,7.20
2023-04-08T14:07:15.456Z,5.97
2023-04-08T14:09:44.958Z,6.32
2023-04-08T14:12:14.154Z,9.75
2023-04-08T14:14:43.670Z,13.88
2023-04-08T14:17:14.797Z,14.98
2023-04-08T14:19:44.713Z,13.35
2023-04-08T14:22:14.672Z,13.80
2023-04-08T14:24:44.345Z,15.95
2023-04-08T14:27:13.509Z,17.60
2023-04-08T14:29:43.300Z,18.33
2023-04-08T14:32:14.046Z,18.45
2023-04-08T14:34:43.562Z,17.42
2023-04-08T14:37:12.956Z,16.65
2023-04-08T14:39:42.419Z,18.13
2023-04-08T14:42:11.535Z,18.20
2023-04-08T14:44:41.425Z,17.15
2023-04-08T14:47:10.675Z,20.45
2023-04-08T14:49:41.442Z,17.15
2023-04-08T14:52:10.609Z,19.60
2023-04-08T14:54:39.923Z,17.23
2023-04-08T14:57:09.402Z,17.15
2023-04-08T14:59:38.854Z,17.70
2023-04-08T15:02:08.379Z,16.52
2023-04-08T15:04:37.986Z,16.38
2023-04-08T15:07:08.734Z,16.90
2023-04-08T15:09:38.629Z,15.88
2023-04-08T15:12:08.298Z,15.75
2023-04-08T15:14:38.710Z,16.35
2023-04-08T15:17:10.260Z,16.02
2023-04-08T15:19:39.701Z,17.20
2023-04-08T15:22:10.192Z,16.38
2023-04-08T15:24:39.766Z,17.83
2023-04-08T15:27:09.047Z,16.35
2023-04-08T15:29:38.619Z,16.23
2023-04-08T15:32:07.724Z,14.77
2023-04-08T15:34:37.331Z,15.75
2023-04-08T15:37:06.506Z,15.52
2023-04-08T15:39:37.608Z,14.88
2023-04-08T15:42:06.913Z,14.32
2023-04-08T15:44:36.636Z,12.50
2023-04-08T15:47:08.145Z,13.23
2023-04-08T15:49:37.637Z,13.25
2023-04-08T15:52:07.375Z,14.63
2023-04-08T15:54:38.816Z,14.48
2023-04-08T15:57:08.256Z,14.00
2023-04-08T15:59:37.687Z,12.82
2023-04-08T16:02:07.456Z,13.65
2023-04-08T16:04:36.964Z,12.98
2023-04-08T16:07:06.236Z,14.43
2023-04-08T16:09:37.103Z,14.40
2023-04-08T16:12:06.482Z,12.07
2023-04-08T16:14:35.804Z,12.63
2023-04-08T16:17:05.002Z,13.55
2023-04-08T16:19:34.347Z,13.95
2023-04-08T16:22:03.618Z,14.32
2023-04-08T16:24:37.589Z,15.93
2023-04-08T16:27:08.252Z,15.13
2023-04-08T16:29:38.046Z,14.07
2023-04-08T16:32:07.393Z,13.65
2023-04-08T16:34:36.889Z,14.02
2023-04-08T16:37:06.109Z,16.55
2023-04-08T16:39:35.536Z,14.90
2023-04-08T16:42:06.474Z,13.90
2023-04-08T16:44:35.956Z,14.23
2023-04-08T16:47:05.111Z,15.35
2023-04-08T16:49:34.455Z,14.43
2023-04-08T16:52:03.898Z,14.93
2023-04-08T16:54:33.381Z,15.75
2023-04-08T16:59:33.236Z,14.50
2023-04-08T17:02:02.959Z,15.10
2023-04-08T17:04:32.850Z,14.32
2023-04-08T17:07:02.473Z,15.05
2023-04-08T17:09:32.243Z,14.48
2023-04-08T17:12:01.482Z,13.90
2023-04-08T17:14:32.507Z,13.75
2023-04-08T17:17:02.510Z,14.75
2023-04-08T17:19:32.607Z,14.45
2023-04-08T17:22:01.891Z,16.90
2023-04-08T17:24:31.433Z,15.27
2023-04-08T17:29:29.666Z,16.52
2023-04-08T17:32:00.290Z,15.63
2023-04-08T17:34:31.319Z,15.88
2023-04-08T17:37:00.728Z,14.95
2023-04-08T17:39:31.416Z,16.10
2023-04-08T17:42:02.168Z,16.70
2023-04-08T17:44:31.816Z,17.48
2023-04-08T17:49:31.552Z,15.20
2023-04-08T17:52:00.879Z,15.90
2023-04-08T17:54:31.489Z,16.88
2023-04-08T17:57:01.429Z,17.30
2023-04-08T17:59:30.886Z,17.60
2023-04-08T18:02:00.071Z,18.88
2023-04-08T18:04:30.920Z,17.83
2023-04-08T18:07:03.829Z,16.17
2023-04-08T18:09:33.319Z,17.83
2023-04-08T18:12:02.465Z,19.20
2023-04-08T18:14:32.150Z,18.00
2023-04-08T18:17:01.501Z,19.30
2023-04-08T18:22:01.329Z,19.42
2023-04-08T18:24:30.800Z,19.63
2023-04-08T18:27:04.307Z,19.88
2023-04-08T18:29:34.772Z,19.60
2023-04-08T18:32:03.985Z,19.00
2023-04-08T18:34:36.461Z,17.88
2023-04-08T18:37:06.259Z,19.27
2023-04-08T18:39:36.120Z,18.58
2023-04-08T18:42:06.486Z,18.08
2023-04-08T18:44:36.198Z,18.48
2023-04-08T18:47:05.416Z,19.98
2023-04-08T18:49:38.609Z,18.85
2023-04-08T18:52:08.510Z,18.30
2023-04-08T18:54:38.359Z,17.52
2023-04-08T18:59:38.219Z,18.10
2023-04-08T19:02:07.885Z,18.63
2023-04-08T19:04:39.293Z,20.50
2023-04-08T19:07:08.624Z,17.05
2023-04-08T19:09:38.021Z,19.45
2023-04-08T19:12:07.231Z,18.05
2023-04-08T19:17:09.141Z,18.75
2023-04-08T19:19:42.080Z,19.05
2023-04-08T19:22:11.487Z,19.50
2023-04-08T19:24:41.115Z,19.23
2023-04-08T19:27:10.819Z,20.25
2023-04-08T19:29:40.466Z,21.90
2023-04-08T19:32:09.809Z,21.75
2023-04-08T19:37:10.627Z,19.95
2023-04-08T19:39:40.660Z,19.42
2023-04-08T19:42:12.114Z,20.58
2023-04-08T19:44:41.595Z,21.45
2023-04-08T19:47:10.969Z,18.90
2023-04-08T19:49:42.383Z,21.25
2023-04-08T19:52:12.002Z,22.38
2023-04-08T19:54:43.481Z,21.95
2023-04-08T19:57:12.814Z,23.52
2023-04-08T19:59:42.612Z,22.30
2023-04-08T20:04:42.903Z,22.75
2023-04-08T20:07:12.134Z,24.55
2023-04-08T20:09:41.544Z,25.02
2023-04-08T20:12:10.865Z,28.33
2023-04-08T20:14:44.132Z,29.10
2023-04-08T20:17:15.570Z,25.80
2023-04-08T20:19:46.641Z,27.10
2023-04-08T20:22:15.974Z,28.83
2023-04-08T20:24:45.753Z,24.75
2023-04-08T20:29:44.559Z,25.65
2023-04-08T20:32:14.374Z,30.38
2023-04-08T20:34:46.642Z,28.23
2023-04-08T20:37:16.662Z,29.83
2023-04-08T20:39:46.693Z,26.67
2023-04-08T20:42:15.890Z,27.73
2023-04-08T20:44:45.442Z,30.88
2023-04-08T20:47:14.636Z,29.92
2023-04-08T20:49:46.331Z,30.17
2023-04-08T20:52:15.864Z,28.85
2023-04-08T20:54:45.346Z,29.58
2023-04-08T20:57:14.435Z,30.83
2023-04-08T20:59:43.816Z,32.70
2023-04-08T21:02:12.976Z,34.08
2023-04-08T21:04:46.156Z,33.55
2023-04-08T21:07:15.409Z,31.58
2023-04-08T21:09:47.853Z,30.67
2023-04-08T21:12:16.943Z,33.17
2023-04-08T21:14:47.954Z,32.13
2023-04-08T21:19:48.070Z,31.30
2023-04-08T21:22:17.687Z,33.00
2023-04-08T21:24:47.095Z,37.47
2023-04-08T21:27:16.524Z,34.33
2023-04-08T21:29:45.970Z,32.58
2023-04-08T21:32:15.216Z,33.50
2023-04-08T21:34:46.351Z,34.30
2023-04-08T21:37:15.545Z,33.20
2023-04-08T21:39:44.877Z,31.35
2023-04-08T21:42:14.167Z,36.25
2023-04-08T21:44:43.482Z,31.33
2023-04-08T21:47:12.695Z,30.63
2023-04-08T21:49:42.063Z,33.65
2023-04-08T21:52:13.064Z,36.03
2023-04-08T21:54:42.582Z,33.05
2023-04-08T21:57:11.977Z,33.28
2023-04-08T21:59:41.542Z,34.90
2023-04-08T22:02:11.745Z,35.65
2023-04-08T22:04:41.533Z,37.10
2023-04-08T22:07:12.117Z,38.55
2023-04-08T22:09:41.873Z,37.08
2023-04-08T22:12:11.901Z,35.50
2023-04-08T22:14:41.308Z,35.17
2023-04-08T22:17:10.819Z,37.67
2023-04-08T22:19:40.282Z,37.60
2023-04-08T22:22:09.390Z,36.20
2023-04-08T22:24:40.301Z,29.95
2023-04-08T22:27:09.595Z,39.10
2023-04-08T22:29:39.003Z,34.50
2023-04-08T22:32:08.490Z,34.67
2023-04-08T22:34:38.163Z,34.45
2023-04-08T22:37:07.433Z,33.75
2023-04-08T22:39:36.766Z,32.28
2023-04-08T22:42:07.366Z,35.22
2023-04-08T22:44:36.886Z,40.85
2023-04-08T22:47:06.140Z,35.53
2023-04-08T22:52:05.088Z,33.85
2023-04-08T22:54:34.483Z,34.60
2023-04-08T22:57:03.790Z,36.42
2023-04-08T22:59:34.552Z,32.90
2023-04-08T23:02:03.815Z,37.00
2023-04-08T23:04:33.372Z,35.15
2023-04-08T23:07:02.462Z,37.05
2023-04-08T23:12:01.446Z,32.47
2023-04-08T23:14:30.932Z,35.05
2023-04-08T23:17:02.537Z,35.72
2023-04-08T23:19:34.182Z,36.58
2023-04-08T23:22:03.366Z,33.67
2023-04-08T23:24:34.458Z,34.65
2023-04-08T23:27:03.817Z,33.17
2023-04-08T23:32:03.660Z,31.85
2023-04-08T23:34:35.976Z,32.17
2023-04-08T23:37:05.271Z,31.85
2023-04-08T23:42:03.659Z,30.27
2023-04-08T23:47:03.414Z,28.33
2023-04-08T23:49:33.003Z,31.60
2023-04-08T23:52:02.103Z,27.48
2023-04-08T23:54:33.781Z,29.15
2023-04-08T23:57:02.915Z,30.13
2023-04-08T23:59:32.594Z,31.20
